CYDF/YDF METAR and TAF weather

Enter ICAO airport designator
Station Type Date Time Source
CYDF METAR 2019/08/24 08:00 UTC NOAA

CYDF 240800Z 24003KT 190V260 15SM BKN045 12/10 A2977 RMK SC5 PRESRR SLP082


Station Type Date Time Source
CYDF Decoded METAR 2019/08/24 08:00 UTC NOAA

Station name not available
Aug 24, 2019 - 04:00 AM EDT / 2019.08.24 0800 UTC
Wind: from the WSW (240 degrees) at 3 MPH (3 KT) (direction variable):0
Visibility: 15 mile(s):0
Sky conditions: mostly cloudy
Temperature: 53 F (12 C)
Dew Point: 50 F (10 C)
Relative Humidity: 87%
Pressure (altimeter): 29.77 in. Hg (1008 hPa)
Pressure tendency: rising rapidly
ob: CYDF 240800Z 24003KT 190V260 15SM BKN045 12/10 A2977 RMK SC5 PRESRR SLP082
cycle: 8

Station Type Date Time Source
CYDF TAF 2019/08/24 08:42 UTC NOAA

TAF CYDF 240738Z 2408/2420 VRB03KT P6SM OVC030
TEMPO 2408/2414 5SM -SHRA BR BKN008 OVC030
FM241400 02012KT P6SM BKN030
TEMPO 2414/2416 5SM -SHRA BR BKN020
FM241600 01012KT P6SM BKN030
FM241800 01010KT P6SM SCT030
RMK NXT FCST BY 241400Z

Example: see airport list